createdAt,value
2019-01-26T00:00:16.926Z,19.57
2019-01-26T00:03:22.003Z,19.07
2019-01-26T00:06:25.225Z,18.70
2019-01-26T00:09:28.489Z,19.77
2019-01-26T00:12:31.623Z,18.77
2019-01-26T00:15:34.972Z,19.43
2019-01-26T00:18:38.110Z,19.67
2019-01-26T00:21:41.348Z,21.10
2019-01-26T00:24:44.397Z,19.30
2019-01-26T00:27:47.634Z,19.73
2019-01-26T00:30:50.787Z,20.00
2019-01-26T00:33:54.130Z,19.67
2019-01-26T00:36:57.181Z,18.67
2019-01-26T00:40:00.326Z,18.83
2019-01-26T00:43:03.363Z,19.53
2019-01-26T00:46:06.706Z,20.17
2019-01-26T00:49:09.750Z,20.33
2019-01-26T00:52:13.270Z,19.60
2019-01-26T00:55:16.818Z,21.70
2019-01-26T00:58:23.705Z,21.17
2019-01-26T01:01:25.706Z,19.27
2019-01-26T01:04:29.862Z,20.60
2019-01-26T01:07:33.019Z,22.47
2019-01-26T01:10:36.287Z,21.23
2019-01-26T01:13:39.410Z,20.43
2019-01-26T01:16:42.543Z,21.20
2019-01-26T01:19:45.593Z,22.73
2019-01-26T01:22:48.759Z,22.47
2019-01-26T01:25:51.986Z,20.07
2019-01-26T01:28:55.115Z,20.60
2019-01-26T01:31:58.170Z,21.30
2019-01-26T01:35:01.305Z,23.27
2019-01-26T01:38:04.559Z,23.07
2019-01-26T01:41:07.690Z,24.10
2019-01-26T01:44:10.847Z,21.50
2019-01-26T01:47:13.977Z,23.83
2019-01-26T01:50:17.441Z,23.90
2019-01-26T01:53:20.690Z,23.70
2019-01-26T01:56:23.730Z,24.17
2019-01-26T01:59:26.974Z,22.53
2019-01-26T02:02:30.118Z,25.33
2019-01-26T02:05:33.430Z,23.03
2019-01-26T02:08:36.610Z,26.30
2019-01-26T02:11:40.217Z,26.63
2019-01-26T02:14:43.409Z,26.13
2019-01-26T02:17:46.510Z,25.87
2019-01-26T02:20:49.594Z,26.30
2019-01-26T02:23:52.797Z,26.67
2019-01-26T02:26:55.987Z,26.80
2019-01-26T02:29:59.182Z,27.93
2019-01-26T02:33:02.277Z,25.57
2019-01-26T02:36:05.473Z,26.67
2019-01-26T02:39:08.667Z,28.30
2019-01-26T02:42:11.858Z,26.30
2019-01-26T02:45:15.261Z,26.83
2019-01-26T02:48:18.458Z,25.33
2019-01-26T02:51:21.650Z,26.93
2019-01-26T02:54:24.745Z,25.00
2019-01-26T02:57:27.839Z,28.67
2019-01-26T03:00:31.035Z,26.70
2019-01-26T03:03:34.226Z,29.43
2019-01-26T03:06:37.321Z,27.43
2019-01-26T03:09:40.409Z,27.70
2019-01-26T03:12:43.608Z,27.70
2019-01-26T03:15:46.808Z,27.27
2019-01-26T03:18:50.034Z,26.47
2019-01-26T03:21:53.086Z,26.37
2019-01-26T03:24:56.349Z,27.27
2019-01-26T03:27:59.485Z,27.03
2019-01-26T03:31:03.952Z,28.17
2019-01-26T03:34:08.681Z,25.70
2019-01-26T03:37:12.077Z,27.03
2019-01-26T03:40:16.934Z,26.20
2019-01-26T03:43:20.110Z,26.87
2019-01-26T03:46:23.154Z,26.67
2019-01-26T03:49:26.286Z,26.10
2019-01-26T03:52:29.353Z,28.13
2019-01-26T03:55:32.982Z,26.60
2019-01-26T03:58:37.163Z,27.73
2019-01-26T04:01:40.503Z,27.23
2019-01-26T04:04:43.652Z,25.43
2019-01-26T04:07:46.894Z,25.63
2019-01-26T04:10:49.948Z,26.73
2019-01-26T04:13:53.111Z,24.87
2019-01-26T04:16:56.230Z,26.97
2019-01-26T04:19:59.469Z,26.03
2019-01-26T04:23:02.622Z,25.80
2019-01-26T04:26:05.782Z,24.40
2019-01-26T04:29:08.818Z,26.47
2019-01-26T04:32:12.147Z,26.97
2019-01-26T04:35:15.611Z,25.10
2019-01-26T04:38:18.754Z,25.50
2019-01-26T04:41:21.791Z,24.33
2019-01-26T04:44:24.949Z,26.70
2019-01-26T04:47:31.041Z,24.40
2019-01-26T04:50:33.270Z,24.77
2019-01-26T04:53:36.414Z,23.03
2019-01-26T04:56:39.579Z,24.03
2019-01-26T04:59:42.701Z,24.13
2019-01-26T05:02:47.097Z,25.50
2019-01-26T05:05:50.121Z,24.80
2019-01-26T05:08:53.579Z,24.80
2019-01-26T05:11:56.611Z,23.67
2019-01-26T05:14:59.744Z,24.37
2019-01-26T05:18:02.894Z,23.67
2019-01-26T05:21:06.430Z,25.57
2019-01-26T05:24:09.490Z,25.20
2019-01-26T05:27:12.754Z,26.30
2019-01-26T05:30:34.012Z,25.57
2019-01-26T05:33:37.250Z,25.23
2019-01-26T05:36:40.334Z,24.77
2019-01-26T05:39:43.601Z,25.27
2019-01-26T05:42:46.683Z,25.33
2019-01-26T05:45:49.786Z,24.40
2019-01-26T05:48:52.942Z,23.83
2019-01-26T05:51:56.073Z,25.97
2019-01-26T05:54:59.128Z,23.50
2019-01-26T05:58:02.374Z,23.97
2019-01-26T06:01:05.624Z,24.37
2019-01-26T06:04:08.850Z,24.60
2019-01-26T06:07:11.910Z,23.97
2019-01-26T06:10:15.003Z,24.33
2019-01-26T06:13:18.095Z,25.23
2019-01-26T06:16:21.291Z,23.47
2019-01-26T06:19:24.383Z,24.27
2019-01-26T06:22:27.478Z,24.10
2019-01-26T06:25:30.667Z,25.73
2019-01-26T06:28:33.866Z,25.40
2019-01-26T06:31:36.957Z,25.00
2019-01-26T06:34:40.137Z,22.40
2019-01-26T06:37:43.244Z,24.87
2019-01-26T06:40:46.338Z,25.87
2019-01-26T06:43:49.429Z,25.43
2019-01-26T06:46:52.525Z,25.33
2019-01-26T06:49:55.713Z,26.17
2019-01-26T06:52:58.924Z,25.37
2019-01-26T06:56:02.106Z,27.27
2019-01-26T06:59:05.305Z,25.90
2019-01-26T07:02:08.398Z,26.53
2019-01-26T07:05:33.838Z,26.63
2019-01-26T07:08:37.008Z,25.13
2019-01-26T07:11:40.102Z,25.80
2019-01-26T07:14:43.295Z,26.33
2019-01-26T07:17:46.596Z,25.60
2019-01-26T07:20:49.886Z,26.80
2019-01-26T07:23:53.095Z,27.97
2019-01-26T07:26:56.179Z,25.60
2019-01-26T07:29:59.374Z,26.40
2019-01-26T07:33:02.611Z,30.40
2019-01-26T07:36:05.763Z,32.87
2019-01-26T07:39:09.678Z,31.77
2019-01-26T07:42:12.912Z,29.17
2019-01-26T07:45:16.166Z,28.43
2019-01-26T07:48:19.514Z,26.33
2019-01-26T07:51:22.554Z,29.33
2019-01-26T07:54:25.688Z,28.87
2019-01-26T07:57:28.946Z,28.87
2019-01-26T08:00:32.091Z,29.93
2019-01-26T08:03:35.135Z,29.33
2019-01-26T08:06:38.682Z,29.37
2019-01-26T08:09:41.829Z,30.63
2019-01-26T08:12:44.963Z,30.10
2019-01-26T08:15:48.018Z,31.70
2019-01-26T08:18:51.250Z,33.90
2019-01-26T08:21:54.406Z,37.73
2019-01-26T08:24:58.575Z,50.30
2019-01-26T08:28:01.821Z,37.83
2019-01-26T08:31:05.159Z,31.70
2019-01-26T08:34:08.433Z,32.03
2019-01-26T08:37:11.646Z,38.63
2019-01-26T08:40:15.726Z,36.73
2019-01-26T08:43:18.969Z,41.83
2019-01-26T08:46:22.014Z,34.40
2019-01-26T08:49:25.246Z,31.03
2019-01-26T08:52:28.402Z,33.57
2019-01-26T08:55:31.644Z,33.87
2019-01-26T08:58:35.818Z,34.40
2019-01-26T09:01:39.055Z,36.33
2019-01-26T09:04:43.846Z,34.50
2019-01-26T09:07:47.194Z,35.07
2019-01-26T09:10:50.239Z,35.77
2019-01-26T09:13:53.475Z,36.50
2019-01-26T09:16:56.626Z,34.27
2019-01-26T09:19:59.790Z,34.43
2019-01-26T09:23:03.023Z,34.07
2019-01-26T09:26:06.230Z,32.97
2019-01-26T09:29:09.411Z,35.47
2019-01-26T09:32:12.502Z,34.70
2019-01-26T09:35:15.801Z,32.47
2019-01-26T09:38:18.896Z,33.93
2019-01-26T09:41:21.982Z,35.33
2019-01-26T09:44:25.078Z,34.87
2019-01-26T09:47:28.270Z,32.63
2019-01-26T09:50:31.470Z,36.50
2019-01-26T09:53:34.574Z,34.43
2019-01-26T09:56:37.758Z,33.40
2019-01-26T09:59:40.899Z,32.10
2019-01-26T10:02:44.050Z,33.57
2019-01-26T10:05:47.241Z,33.07
2019-01-26T10:08:50.336Z,31.67
2019-01-26T10:11:53.526Z,33.93
2019-01-26T10:14:56.622Z,35.50
2019-01-26T10:17:59.918Z,33.77
2019-01-26T10:21:03.115Z,35.73
2019-01-26T10:24:06.306Z,36.50
2019-01-26T10:27:09.403Z,36.53
2019-01-26T10:30:19.427Z,40.03
2019-01-26T10:33:22.650Z,41.63
2019-01-26T10:36:47.765Z,40.37
2019-01-26T10:39:51.355Z,41.70
2019-01-26T10:42:54.553Z,42.17
2019-01-26T10:46:03.587Z,44.67
2019-01-26T10:49:06.790Z,43.10
2019-01-26T10:52:10.027Z,42.47
2019-01-26T10:55:15.529Z,38.20
2019-01-26T10:58:18.626Z,37.80
2019-01-26T11:01:22.946Z,38.43
2019-01-26T11:04:26.117Z,38.43
2019-01-26T11:07:29.132Z,36.40
2019-01-26T11:10:33.122Z,38.17
2019-01-26T11:13:36.238Z,37.70
2019-01-26T11:16:39.453Z,35.53
2019-01-26T11:19:42.629Z,36.97
2019-01-26T11:22:47.641Z,39.90
2019-01-26T11:25:50.863Z,39.90
2019-01-26T11:28:54.206Z,39.50
2019-01-26T11:31:57.350Z,37.63
2019-01-26T11:35:00.486Z,41.70
2019-01-26T11:38:05.385Z,44.23
2019-01-26T11:41:08.650Z,45.80
2019-01-26T11:44:11.773Z,43.50
2019-01-26T11:47:17.633Z,41.63
2019-01-26T11:50:28.690Z,42.63
2019-01-26T11:53:32.258Z,44.03
2019-01-26T11:56:54.742Z,41.83
2019-01-26T12:00:15.807Z,38.03
2019-01-26T12:03:41.582Z,28.10
2019-01-26T12:06:51.995Z,25.27
2019-01-26T12:09:55.054Z,20.40
2019-01-26T12:12:59.326Z,19.17
2019-01-26T12:16:02.570Z,15.30
2019-01-26T12:19:05.706Z,15.37
2019-01-26T12:22:08.857Z,15.23
2019-01-26T12:25:12.302Z,14.07
2019-01-26T12:28:15.453Z,13.73
2019-01-26T12:31:18.702Z,14.30
2019-01-26T12:34:22.969Z,13.33
2019-01-26T12:37:26.206Z,13.73
2019-01-26T12:40:29.260Z,13.20
2019-01-26T12:43:32.606Z,13.03
2019-01-26T12:46:35.755Z,11.50
2019-01-26T12:49:39.102Z,12.40
2019-01-26T12:52:42.342Z,11.67
2019-01-26T12:55:46.676Z,12.43
2019-01-26T12:58:49.866Z,10.80
2019-01-26T13:01:53.178Z,10.30
2019-01-26T13:04:56.258Z,11.73
2019-01-26T13:07:59.394Z,12.10
2019-01-26T13:11:10.122Z,11.70
2019-01-26T13:14:14.342Z,11.17
2019-01-26T13:17:17.535Z,10.73
2019-01-26T13:20:20.732Z,13.03
2019-01-26T13:23:23.922Z,12.77
2019-01-26T13:26:27.019Z,13.20
2019-01-26T13:29:30.215Z,13.23
2019-01-26T13:32:33.450Z,13.37
2019-01-26T13:35:36.606Z,13.93
2019-01-26T13:38:39.698Z,14.73
2019-01-26T13:41:42.785Z,14.10
2019-01-26T13:44:45.986Z,14.50
2019-01-26T13:47:49.178Z,14.00
2019-01-26T13:50:52.274Z,15.30
2019-01-26T13:53:55.566Z,14.40
2019-01-26T13:56:58.665Z,14.93
2019-01-26T14:00:01.959Z,15.77
2019-01-26T14:03:05.361Z,14.73
2019-01-26T14:06:08.454Z,14.73
2019-01-26T14:09:11.646Z,13.30
2019-01-26T14:12:14.742Z,14.20
2019-01-26T14:15:18.046Z,12.70
2019-01-26T14:18:21.230Z,12.90
2019-01-26T14:21:25.635Z,11.70
2019-01-26T14:24:28.755Z,11.27
2019-01-26T14:27:31.942Z,11.17
2019-01-26T14:30:40.130Z,10.90
2019-01-26T14:33:43.249Z,11.23
2019-01-26T14:36:46.447Z,9.70
2019-01-26T14:39:49.679Z,8.90
2019-01-26T14:42:54.472Z,9.20
2019-01-26T14:45:59.671Z,8.50
2019-01-26T14:49:02.811Z,8.77
2019-01-26T14:52:05.947Z,8.50
2019-01-26T14:55:11.862Z,8.80
2019-01-26T14:58:15.028Z,9.03
2019-01-26T15:01:18.255Z,10.57
2019-01-26T15:04:21.486Z,8.20
2019-01-26T15:07:24.543Z,8.80
2019-01-26T15:10:27.723Z,8.50
2019-01-26T15:13:30.826Z,9.70
2019-01-26T15:16:33.966Z,8.33
2019-01-26T15:19:37.015Z,8.00
2019-01-26T15:22:40.269Z,7.37
2019-01-26T15:25:43.404Z,7.00
2019-01-26T15:28:46.634Z,7.73
2019-01-26T15:31:49.796Z,7.30
2019-01-26T15:34:53.138Z,7.43
2019-01-26T15:37:58.191Z,8.33
2019-01-26T15:41:01.155Z,8.43
2019-01-26T15:44:04.210Z,8.30
2019-01-26T15:47:07.471Z,7.73
2019-01-26T15:50:13.214Z,8.87
2019-01-26T15:53:16.286Z,12.43
2019-01-26T15:56:19.451Z,10.00
2019-01-26T15:59:22.587Z,8.67
2019-01-26T16:02:25.742Z,9.43
2019-01-26T16:05:28.947Z,9.00
2019-01-26T16:08:32.025Z,9.10
2019-01-26T16:11:35.190Z,9.03
2019-01-26T16:14:38.286Z,9.03
2019-01-26T16:17:41.617Z,8.17
2019-01-26T16:20:44.733Z,9.20
2019-01-26T16:23:47.938Z,7.87
2019-01-26T16:26:50.994Z,9.43
2019-01-26T16:29:54.258Z,8.63
2019-01-26T16:32:58.237Z,8.57
2019-01-26T16:36:01.546Z,8.53
2019-01-26T16:39:08.553Z,8.17
2019-01-26T16:42:12.134Z,8.17
2019-01-26T16:45:17.914Z,9.93
2019-01-26T16:48:22.098Z,10.67
2019-01-26T16:51:25.154Z,10.47
2019-01-26T16:54:28.302Z,10.30
2019-01-26T16:57:31.442Z,9.53
2019-01-26T17:01:01.098Z,10.40
2019-01-26T17:04:04.262Z,9.43
2019-01-26T17:07:07.597Z,10.60
2019-01-26T17:10:12.862Z,11.97
2019-01-26T17:13:17.187Z,11.77
2019-01-26T17:16:20.410Z,11.17
2019-01-26T17:19:24.882Z,10.87
2019-01-26T17:22:27.931Z,11.10
2019-01-26T17:25:31.198Z,11.57
2019-01-26T17:28:34.422Z,11.67
2019-01-26T17:31:37.661Z,12.87
2019-01-26T17:34:40.812Z,13.60
2019-01-26T17:37:43.979Z,14.17
2019-01-26T17:40:54.096Z,13.63
2019-01-26T17:43:52.963Z,15.07
2019-01-26T17:46:56.052Z,17.40
2019-01-26T17:49:59.246Z,17.23
2019-01-26T17:53:02.686Z,17.20
2019-01-26T17:56:06.866Z,21.27
2019-01-26T17:59:10.059Z,24.47
2019-01-26T18:02:13.258Z,22.57
2019-01-26T18:05:16.346Z,19.87
2019-01-26T18:08:19.442Z,17.87
2019-01-26T18:11:22.733Z,18.73
2019-01-26T18:14:25.830Z,17.87
2019-01-26T18:17:28.923Z,16.80
2019-01-26T18:20:32.221Z,19.27
2019-01-26T18:23:35.411Z,19.43
2019-01-26T18:26:38.514Z,18.83
2019-01-26T18:29:42.829Z,20.30
2019-01-26T18:32:46.030Z,18.93
2019-01-26T18:35:49.218Z,19.30
2019-01-26T18:38:52.315Z,17.90
2019-01-26T18:41:55.506Z,18.17
2019-01-26T18:44:58.705Z,19.20
2019-01-26T18:48:01.897Z,20.97
2019-01-26T18:51:05.091Z,22.43
2019-01-26T18:54:08.289Z,25.20
2019-01-26T18:57:11.386Z,26.33
2019-01-26T19:00:23.082Z,23.83
2019-01-26T19:03:31.034Z,21.17
2019-01-26T19:06:34.374Z,19.07
2019-01-26T19:09:37.617Z,18.50
2019-01-26T19:12:40.670Z,18.27
2019-01-26T19:15:45.026Z,17.20
2019-01-26T19:18:48.181Z,17.60
2019-01-26T19:21:51.534Z,17.43
2019-01-26T19:24:54.678Z,16.53
2019-01-26T19:27:59.150Z,16.87
2019-01-26T19:31:02.199Z,16.60
2019-01-26T19:34:05.745Z,15.07
2019-01-26T19:37:09.329Z,15.20
2019-01-26T19:40:16.223Z,18.00
2019-01-26T19:43:19.379Z,15.90
2019-01-26T19:46:22.513Z,14.93
2019-01-26T19:49:25.766Z,13.83
2019-01-26T19:52:29.016Z,15.47
2019-01-26T19:55:32.158Z,15.93
2019-01-26T19:58:35.390Z,21.30
2019-01-26T20:01:38.546Z,19.17
2019-01-26T20:04:41.778Z,20.60
2019-01-26T20:07:45.353Z,19.90
2019-01-26T20:10:53.792Z,17.87
2019-01-26T20:13:56.864Z,18.87
2019-01-26T20:17:07.458Z,17.43
2019-01-26T20:20:13.046Z,17.83
2019-01-26T20:23:24.690Z,18.93
2019-01-26T20:26:29.275Z,26.27
2019-01-26T20:29:32.439Z,22.67
2019-01-26T20:32:35.486Z,21.63
2019-01-26T20:35:38.918Z,16.83
2019-01-26T20:38:42.411Z,16.67
2019-01-26T20:41:45.565Z,16.50
2019-01-26T20:44:49.902Z,15.73
2019-01-26T20:47:53.098Z,14.07
2019-01-26T20:50:57.326Z,13.53
2019-01-26T20:54:00.416Z,12.73
2019-01-26T20:57:17.228Z,13.00
2019-01-26T21:00:23.359Z,15.87
2019-01-26T21:03:26.484Z,12.60
2019-01-26T21:06:29.580Z,11.40
2019-01-26T21:09:32.670Z,11.03
2019-01-26T21:12:35.763Z,10.20
2019-01-26T21:15:38.958Z,10.13
2019-01-26T21:18:42.161Z,10.50
2019-01-26T21:21:46.370Z,13.10
2019-01-26T21:24:49.466Z,12.53
2019-01-26T21:27:52.558Z,16.47
2019-01-26T21:30:56.674Z,10.57
2019-01-26T21:33:59.973Z,11.30
2019-01-26T21:37:03.162Z,8.50
2019-01-26T21:40:10.426Z,23.33
2019-01-26T21:43:13.556Z,8.77
2019-01-26T21:46:16.722Z,8.20
2019-01-26T21:49:19.942Z,8.80
2019-01-26T21:52:23.030Z,8.37
2019-01-26T21:55:26.226Z,9.40
2019-01-26T21:58:29.318Z,8.77
2019-01-26T22:01:32.415Z,8.40
2019-01-26T22:04:35.605Z,7.97
2019-01-26T22:07:38.869Z,7.67
2019-01-26T22:10:41.999Z,7.80
2019-01-26T22:13:45.135Z,7.53
2019-01-26T22:16:49.209Z,8.33
2019-01-26T22:19:52.451Z,8.70
2019-01-26T22:22:55.805Z,7.07
2019-01-26T22:25:59.454Z,8.30
2019-01-26T22:29:02.601Z,7.63
2019-01-26T22:32:06.143Z,8.17
2019-01-26T22:35:09.499Z,8.63
2019-01-26T22:38:12.733Z,9.50
2019-01-26T22:41:15.794Z,8.20
2019-01-26T22:44:19.139Z,7.87
2019-01-26T22:47:22.182Z,8.27
2019-01-26T22:50:25.842Z,8.40
2019-01-26T22:53:28.877Z,8.03
2019-01-26T22:56:32.010Z,8.53
2019-01-26T22:59:35.274Z,9.40
2019-01-26T23:02:38.406Z,9.20
2019-01-26T23:06:14.425Z,9.33
2019-01-26T23:09:44.151Z,9.67
2019-01-26T23:12:58.706Z,9.93
2019-01-26T23:16:48.393Z,10.23
2019-01-26T23:19:56.197Z,10.30
2019-01-26T23:23:53.256Z,10.00
2019-01-26T23:27:39.612Z,11.07
2019-01-26T23:31:11.014Z,12.07
2019-01-26T23:34:14.363Z,11.50
2019-01-26T23:37:17.410Z,12.67
2019-01-26T23:40:20.569Z,13.67
2019-01-26T23:43:23.694Z,14.47
2019-01-26T23:46:26.854Z,15.43
2019-01-26T23:49:30.083Z,14.70
2019-01-26T23:52:33.221Z,13.57
2019-01-26T23:55:36.270Z,14.73
2019-01-26T23:58:39.697Z,14.70
